sensor_id;sensor_type;location;lat;lon;timestamp;pressure;altitude;pressure_sealevel;temperature;humidity
71974;BME280;59840;52.122;5.404;2024-02-26T00:01:54;100151.56;;;5.68;100.00
71974;BME280;59840;52.122;5.404;2024-02-26T00:04:20;100157.59;;;5.69;100.00
71974;BME280;59840;52.122;5.404;2024-02-26T00:06:48;100163.28;;;5.66;100.00
71974;BME280;59840;52.122;5.404;2024-02-26T00:09:17;100161.69;;;5.65;100.00
71974;BME280;59840;52.122;5.404;2024-02-26T00:11:44;100163.72;;;5.63;100.00
71974;BME280;59840;52.122;5.404;2024-02-26T00:14:11;100160.75;;;5.59;100.00
71974;BME280;59840;52.122;5.404;2024-02-26T00:16:40;100162.00;;;5.57;100.00
71974;BME280;59840;52.122;5.404;2024-02-26T00:19:07;100162.00;;;5.57;100.00
71974;BME280;59840;52.122;5.404;2024-02-26T00:21:34;100168.75;;;5.53;100.00
71974;BME280;59840;52.122;5.404;2024-02-26T00:24:00;100173.41;;;5.51;100.00
71974;BME280;59840;52.122;5.404;2024-02-26T00:26:27;100175.22;;;5.50;100.00
71974;BME280;59840;52.122;5.404;2024-02-26T00:28:54;100177.06;;;5.50;100.00
71974;BME280;59840;52.122;5.404;2024-02-26T00:31:20;100169.66;;;5.47;100.00
71974;BME280;59840;52.122;5.404;2024-02-26T00:33:47;100171.69;;;5.45;100.00
71974;BME280;59840;52.122;5.404;2024-02-26T00:36:13;100168.50;;;5.43;100.00
71974;BME280;59840;52.122;5.404;2024-02-26T00:38:40;100165.31;;;5.41;100.00
71974;BME280;59840;52.122;5.404;2024-02-26T00:41:07;100179.66;;;5.38;100.00
71974;BME280;59840;52.122;5.404;2024-02-26T00:43:33;100169.41;;;5.36;100.00
71974;BME280;59840;52.122;5.404;2024-02-26T00:46:00;100167.81;;;5.35;100.00
71974;BME280;59840;52.122;5.404;2024-02-26T00:48:27;100180.53;;;5.32;100.00
71974;BME280;59840;52.122;5.404;2024-02-26T00:50:53;100166.09;;;5.29;100.00
71974;BME280;59840;52.122;5.404;2024-02-26T00:53:20;100176.78;;;5.28;100.00
71974;BME280;59840;52.122;5.404;2024-02-26T00:55:47;100189.28;;;5.26;100.00
71974;BME280;59840;52.122;5.404;2024-02-26T00:58:13;100182.69;;;5.23;100.00
71974;BME280;59840;52.122;5.404;2024-02-26T01:00:40;100171.44;;;5.23;100.00
71974;BME280;59840;52.122;5.404;2024-02-26T01:03:07;100176.44;;;5.24;100.00
71974;BME280;59840;52.122;5.404;2024-02-26T01:05:33;100173.81;;;5.24;100.00
71974;BME280;59840;52.122;5.404;2024-02-26T01:08:00;100181.66;;;5.24;100.00
71974;BME280;59840;52.122;5.404;2024-02-26T01:10:27;100181.44;;;5.26;100.00
71974;BME280;59840;52.122;5.404;2024-02-26T01:12:53;100173.81;;;5.24;100.00
71974;BME280;59840;52.122;5.404;2024-02-26T01:15:20;100174.03;;;5.23;100.00
71974;BME280;59840;52.122;5.404;2024-02-26T01:17:50;100174.84;;;5.23;100.00
71974;BME280;59840;52.122;5.404;2024-02-26T01:20:17;100170.63;;;5.22;100.00
71974;BME280;59840;52.122;5.404;2024-02-26T01:22:44;100174.50;;;5.20;100.00
71974;BME280;59840;52.122;5.404;2024-02-26T01:25:12;100168.50;;;5.19;100.00
71974;BME280;59840;52.122;5.404;2024-02-26T01:27:39;100174.50;;;5.20;100.00
71974;BME280;59840;52.122;5.404;2024-02-26T01:30:08;100165.06;;;5.19;100.00
71974;BME280;59840;52.122;5.404;2024-02-26T01:32:35;100166.09;;;5.18;100.00
71974;BME280;59840;52.122;5.404;2024-02-26T01:35:02;100170.06;;;5.20;100.00
71974;BME280;59840;52.122;5.404;2024-02-26T01:37:36;100170.84;;;5.21;100.00
71974;BME280;59840;52.122;5.404;2024-02-26T01:40:03;100165.63;;;5.21;100.00
71974;BME280;59840;52.122;5.404;2024-02-26T01:42:38;100164.06;;;5.20;100.00
71974;BME280;59840;52.122;5.404;2024-02-26T01:45:05;100159.84;;;5.19;100.00
71974;BME280;59840;52.122;5.404;2024-02-26T01:47:33;100163.25;;;5.19;100.00
71974;BME280;59840;52.122;5.404;2024-02-26T01:50:00;100171.91;;;5.20;100.00
71974;BME280;59840;52.122;5.404;2024-02-26T01:52:27;100156.75;;;5.22;100.00
71974;BME280;59840;52.122;5.404;2024-02-26T01:54:53;100169.59;;;5.23;100.00
71974;BME280;59840;52.122;5.404;2024-02-26T01:57:20;100164.16;;;5.25;100.00
71974;BME280;59840;52.122;5.404;2024-02-26T01:59:47;100174.16;;;5.28;100.00
71974;BME280;59840;52.122;5.404;2024-02-26T02:02:15;100177.56;;;5.28;100.00
71974;BME280;59840;52.122;5.404;2024-02-26T02:04:41;100179.16;;;5.29;100.00
71974;BME280;59840;52.122;5.404;2024-02-26T02:07:08;100183.16;;;5.32;100.00
71974;BME280;59840;52.122;5.404;2024-02-26T02:09:35;100178.72;;;5.32;100.00
71974;BME280;59840;52.122;5.404;2024-02-26T02:12:02;100193.06;;;5.30;100.00
71974;BME280;59840;52.122;5.404;2024-02-26T02:14:29;100185.78;;;5.32;100.00
71974;BME280;59840;52.122;5.404;2024-02-26T02:16:55;100187.59;;;5.31;100.00
71974;BME280;59840;52.122;5.404;2024-02-26T02:19:22;100189.75;;;5.34;100.00
71974;BME280;59840;52.122;5.404;2024-02-26T02:21:49;100191.59;;;5.34;100.00
71974;BME280;59840;52.122;5.404;2024-02-26T02:24:15;100203.63;;;5.35;100.00
71974;BME280;59840;52.122;5.404;2024-02-26T02:26:42;100195.00;;;5.34;100.00
71974;BME280;59840;52.122;5.404;2024-02-26T02:29:09;100202.84;;;5.34;100.00
71974;BME280;59840;52.122;5.404;2024-02-26T02:31:36;100194.78;;;5.36;100.00
71974;BME280;59840;52.122;5.404;2024-02-26T02:34:03;100197.97;;;5.38;100.00
71974;BME280;59840;52.122;5.404;2024-02-26T02:36:29;100199.56;;;5.39;100.00
71974;BME280;59840;52.122;5.404;2024-02-26T02:38:56;100199.56;;;5.39;100.00
71974;BME280;59840;52.122;5.404;2024-02-26T02:41:23;100205.13;;;5.43;100.00
71974;BME280;59840;52.122;5.404;2024-02-26T02:43:50;100204.34;;;5.42;100.00
71974;BME280;59840;52.122;5.404;2024-02-26T02:46:17;100212.97;;;5.43;100.00
71974;BME280;59840;52.122;5.404;2024-02-26T02:48:43;100216.19;;;5.45;100.00
71974;BME280;59840;52.122;5.404;2024-02-26T02:51:11;100222.19;;;5.45;100.00
71974;BME280;59840;52.122;5.404;2024-02-26T02:53:37;100218.78;;;5.45;100.00
71974;BME280;59840;52.122;5.404;2024-02-26T02:56:04;100219.59;;;5.45;100.00
71974;BME280;59840;52.122;5.404;2024-02-26T02:58:31;100232.44;;;5.47;100.00
71974;BME280;59840;52.122;5.404;2024-02-26T03:00:58;100221.75;;;5.48;100.00
71974;BME280;59840;52.122;5.404;2024-02-26T03:03:26;100230.41;;;5.49;100.00
71974;BME280;59840;52.122;5.404;2024-02-26T03:05:55;100225.97;;;5.49;100.00
71974;BME280;59840;52.122;5.404;2024-02-26T03:08:22;100237.22;;;5.50;100.00
71974;BME280;59840;52.122;5.404;2024-02-26T03:10:48;100243.25;;;5.50;100.00
71974;BME280;59840;52.122;5.404;2024-02-26T03:13:15;100247.69;;;5.50;100.00
71974;BME280;59840;52.122;5.404;2024-02-26T03:15:42;100253.72;;;5.50;100.00
71974;BME280;59840;52.122;5.404;2024-02-26T03:18:08;100254.53;;;5.51;100.00
71974;BME280;59840;52.122;5.404;2024-02-26T03:20:35;100260.78;;;5.50;100.00
71974;BME280;59840;52.122;5.404;2024-02-26T03:23:03;100267.03;;;5.49;100.00
71974;BME280;59840;52.122;5.404;2024-02-26T03:25:30;100265.44;;;5.48;100.00
71974;BME280;59840;52.122;5.404;2024-02-26T03:27:56;100261.22;;;5.47;100.00
71974;BME280;59840;52.122;5.404;2024-02-26T03:30:23;100258.03;;;5.45;100.00
71974;BME280;59840;52.122;5.404;2024-02-26T03:32:50;100271.91;;;5.45;100.00
71974;BME280;59840;52.122;5.404;2024-02-26T03:35:16;100271.34;;;5.43;100.00
71974;BME280;59840;52.122;5.404;2024-02-26T03:37:43;100264.72;;;5.41;100.00
71974;BME280;59840;52.122;5.404;2024-02-26T03:40:10;100270.41;;;5.37;100.00
71974;BME280;59840;52.122;5.404;2024-02-26T03:42:39;100273.03;;;5.37;100.00
71974;BME280;59840;52.122;5.404;2024-02-26T03:45:06;100270.63;;;5.36;100.00
71974;BME280;59840;52.122;5.404;2024-02-26T03:47:32;100269.84;;;5.35;100.00
71974;BME280;59840;52.122;5.404;2024-02-26T03:49:59;100274.50;;;5.33;100.00
71974;BME280;59840;52.122;5.404;2024-02-26T03:52:25;100283.34;;;5.32;100.00
71974;BME280;59840;52.122;5.404;2024-02-26T03:54:52;100282.56;;;5.32;100.00
71974;BME280;59840;52.122;5.404;2024-02-26T03:57:18;100288.00;;;5.30;100.00
71974;BME280;59840;52.122;5.404;2024-02-26T03:59:45;100280.16;;;5.30;100.00
71974;BME280;59840;52.122;5.404;2024-02-26T04:02:12;100283.81;;;5.29;100.00
71974;BME280;59840;52.122;5.404;2024-02-26T04:04:38;100285.41;;;5.30;100.00
71974;BME280;59840;52.122;5.404;2024-02-26T04:07:05;100266.06;;;5.31;100.00
71974;BME280;59840;52.122;5.404;2024-02-26T04:09:32;100271.53;;;5.30;100.00
71974;BME280;59840;52.122;5.404;2024-02-26T04:11:59;100285.41;;;5.30;100.00
71974;BME280;59840;52.122;5.404;2024-02-26T04:14:26;100288.00;;;5.30;100.00
71974;BME280;59840;52.122;5.404;2024-02-26T04:16:52;100293.81;;;5.32;100.00
71974;BME280;59840;52.122;5.404;2024-02-26T04:19:21;100292.22;;;5.31;100.00
71974;BME280;59840;52.122;5.404;2024-02-26T04:21:47;100289.84;;;5.30;100.00
71974;BME280;59840;52.122;5.404;2024-02-26T04:24:14;100296.66;;;5.31;100.00
71974;BME280;59840;52.122;5.404;2024-02-26T04:26:41;100302.69;;;5.31;100.00
71974;BME280;59840;52.122;5.404;2024-02-26T04:29:07;100296.66;;;5.31;100.00
71974;BME280;59840;52.122;5.404;2024-02-26T04:31:34;100299.06;;;5.32;100.00
71974;BME280;59840;52.122;5.404;2024-02-26T04:34:01;100305.31;;;5.31;100.00
71974;BME280;59840;52.122;5.404;2024-02-26T04:36:27;100311.13;;;5.33;100.00
71974;BME280;59840;52.122;5.404;2024-02-26T04:38:54;100310.09;;;5.34;100.00
71974;BME280;59840;52.122;5.404;2024-02-26T04:41:22;100310.31;;;5.33;100.00
71974;BME280;59840;52.122;5.404;2024-02-26T04:43:48;100315.53;;;5.33;100.00
71974;BME280;59840;52.122;5.404;2024-02-26T04:46:15;100304.88;;;5.34;100.00
71974;BME280;59840;52.122;5.404;2024-02-26T04:48:41;100314.53;;;5.34;100.00
71974;BME280;59840;52.122;5.404;2024-02-26T04:51:08;100307.47;;;5.34;100.00
71974;BME280;59840;52.122;5.404;2024-02-26T04:53:35;100316.91;;;5.35;100.00
71974;BME280;59840;52.122;5.404;2024-02-26T04:56:02;100316.91;;;5.35;100.00
71974;BME280;59840;52.122;5.404;2024-02-26T04:58:28;100318.53;;;5.36;100.00
71974;BME280;59840;52.122;5.404;2024-02-26T05:00:55;100317.94;;;5.34;100.00
71974;BME280;59840;52.122;5.404;2024-02-26T05:03:22;100321.34;;;5.35;100.00
71974;BME280;59840;52.122;5.404;2024-02-26T05:05:49;100324.78;;;5.35;100.00
71974;BME280;59840;52.122;5.404;2024-02-26T05:08:16;100336.03;;;5.36;100.00
71974;BME280;59840;52.122;5.404;2024-02-26T05:10:45;100328.19;;;5.36;100.00
71974;BME280;59840;52.122;5.404;2024-02-26T05:13:12;100336.03;;;5.36;100.00
71974;BME280;59840;52.122;5.404;2024-02-26T05:15:40;100344.09;;;5.34;100.00
71974;BME280;59840;52.122;5.404;2024-02-26T05:18:07;100340.34;;;5.30;100.00
71974;BME280;59840;52.122;5.404;2024-02-26T05:20:34;100332.03;;;5.33;100.00
71974;BME280;59840;52.122;5.404;2024-02-26T05:23:02;100338.28;;;5.32;100.00
71974;BME280;59840;52.122;5.404;2024-02-26T05:25:30;100336.47;;;5.33;100.00
71974;BME280;59840;52.122;5.404;2024-02-26T05:27:57;100335.91;;;5.31;100.00
71974;BME280;59840;52.122;5.404;2024-02-26T05:30:23;100337.72;;;5.30;100.00
71974;BME280;59840;52.122;5.404;2024-02-26T05:32:50;100345.56;;;5.30;100.00
71974;BME280;59840;52.122;5.404;2024-02-26T05:35:18;100357.63;;;5.31;100.00
71974;BME280;59840;52.122;5.404;2024-02-26T05:37:44;100351.59;;;5.31;100.00
71974;BME280;59840;52.122;5.404;2024-02-26T05:40:11;100347.38;;;5.30;100.00
71974;BME280;59840;52.122;5.404;2024-02-26T05:42:38;100345.56;;;5.30;100.00
71974;BME280;59840;52.122;5.404;2024-02-26T05:45:05;100343.75;;;5.31;100.00
71974;BME280;59840;52.122;5.404;2024-02-26T05:47:33;100356.25;;;5.29;100.00
71974;BME280;59840;52.122;5.404;2024-02-26T05:50:01;100363.50;;;5.27;100.00
71974;BME280;59840;52.122;5.404;2024-02-26T05:52:28;100359.09;;;5.27;100.00
71974;BME280;59840;52.122;5.404;2024-02-26T05:54:58;100370.34;;;5.28;100.00
71974;BME280;59840;52.122;5.404;2024-02-26T05:57:24;100365.34;;;5.26;100.00
71974;BME280;59840;52.122;5.404;2024-02-26T05:59:51;100366.13;;;5.27;100.00
71974;BME280;59840;52.122;5.404;2024-02-26T06:02:17;100373.75;;;5.28;100.00
71974;BME280;59840;52.122;5.404;2024-02-26T06:04:44;100380.59;;;5.29;100.00
71974;BME280;59840;52.122;5.404;2024-02-26T06:07:10;100376.16;;;5.30;100.00
71974;BME280;59840;52.122;5.404;2024-02-26T06:09:37;100377.75;;;5.31;100.00
71974;BME280;59840;52.122;5.404;2024-02-26T06:12:04;100377.53;;;5.32;100.00
71974;BME280;59840;52.122;5.404;2024-02-26T06:14:30;100393.22;;;5.32;100.00
71974;BME280;59840;52.122;5.404;2024-02-26T06:16:57;100381.16;;;5.31;100.00
71974;BME280;59840;52.122;5.404;2024-02-26T06:19:23;100388.00;;;5.32;100.00
71974;BME280;59840;52.122;5.404;2024-02-26T06:21:50;100401.06;;;5.32;100.00
71974;BME280;59840;52.122;5.404;2024-02-26T06:24:17;100422.59;;;5.34;100.00
71974;BME280;59840;52.122;5.404;2024-02-26T06:26:44;100401.22;;;5.37;100.00
71974;BME280;59840;52.122;5.404;2024-02-26T06:29:10;100405.66;;;5.37;100.00
71974;BME280;59840;52.122;5.404;2024-02-26T06:31:37;100399.19;;;5.39;100.00
71974;BME280;59840;52.122;5.404;2024-02-26T06:34:04;100422.94;;;5.38;100.00
71974;BME280;59840;52.122;5.404;2024-02-26T06:36:31;100402.81;;;5.38;100.00
71974;BME280;59840;52.122;5.404;2024-02-26T06:38:58;100424.53;;;5.39;100.00
71974;BME280;59840;52.122;5.404;2024-02-26T06:41:25;100416.47;;;5.41;100.00
71974;BME280;59840;52.122;5.404;2024-02-26T06:43:54;100426.94;;;5.41;100.00
71974;BME280;59840;52.122;5.404;2024-02-26T06:46:21;100432.19;;;5.41;100.00
71974;BME280;59840;52.122;5.404;2024-02-26T06:48:48;100426.38;;;5.38;100.00
71974;BME280;59840;52.122;5.404;2024-02-26T06:51:20;100426.38;;;5.38;100.00
71974;BME280;59840;52.122;5.404;2024-02-26T06:53:47;100446.28;;;5.39;100.00
71974;BME280;59840;52.122;5.404;2024-02-26T06:56:14;100447.06;;;5.40;100.00
71974;BME280;59840;52.122;5.404;2024-02-26T06:58:40;100440.03;;;5.41;100.00
71974;BME280;59840;52.122;5.404;2024-02-26T07:01:07;100445.03;;;5.42;100.00
71974;BME280;59840;52.122;5.404;2024-02-26T07:03:37;100441.84;;;5.40;100.00
71974;BME280;59840;52.122;5.404;2024-02-26T07:06:04;100450.50;;;5.41;100.00
71974;BME280;59840;52.122;5.404;2024-02-26T07:08:31;100449.47;;;5.42;100.00
71974;BME280;59840;52.122;5.404;2024-02-26T07:10:57;100449.25;;;5.43;100.00
71974;BME280;59840;52.122;5.404;2024-02-26T07:13:24;100457.91;;;5.44;100.00
71974;BME280;59840;52.122;5.404;2024-02-26T07:15:50;100484.06;;;5.44;100.00
71974;BME280;59840;52.122;5.404;2024-02-26T07:18:17;100466.34;;;5.46;100.00
71974;BME280;59840;52.122;5.404;2024-02-26T07:20:44;100473.38;;;5.45;100.00
71974;BME280;59840;52.122;5.404;2024-02-26T07:23:11;100480.44;;;5.45;100.00
71974;BME280;59840;52.122;5.404;2024-02-26T07:25:39;100486.25;;;5.47;100.00
71974;BME280;59840;52.122;5.404;2024-02-26T07:28:06;100499.34;;;5.47;100.00
71974;BME280;59840;52.122;5.404;2024-02-26T07:30:33;100482.28;;;5.56;100.00
71974;BME280;59840;52.122;5.404;2024-02-26T07:32:59;100477.53;;;5.53;100.00
71974;BME280;59840;52.122;5.404;2024-02-26T07:35:26;100474.34;;;5.51;100.00
71974;BME280;59840;52.122;5.404;2024-02-26T07:37:53;100499.47;;;5.52;100.00
71974;BME280;59840;52.122;5.404;2024-02-26T07:40:20;100485.59;;;5.51;100.00
71974;BME280;59840;52.122;5.404;2024-02-26T07:42:47;100490.84;;;5.51;100.00
71974;BME280;59840;52.122;5.404;2024-02-26T07:45:13;100511.75;;;5.51;100.00
71974;BME280;59840;52.122;5.404;2024-02-26T07:47:42;100490.63;;;5.53;100.00
71974;BME280;59840;52.122;5.404;2024-02-26T07:50:10;100487.19;;;5.52;100.00
71974;BME280;59840;52.122;5.404;2024-02-26T07:52:38;100512.56;;;5.52;100.00
71974;BME280;59840;52.122;5.404;2024-02-26T07:55:06;100503.69;;;5.53;100.00
71974;BME280;59840;52.122;5.404;2024-02-26T07:57:33;100514.16;;;5.53;100.00
71974;BME280;59840;52.122;5.404;2024-02-26T08:00:00;100519.19;;;5.54;100.00
71974;BME280;59840;52.122;5.404;2024-02-26T08:02:28;100527.03;;;5.54;100.00
71974;BME280;59840;52.122;5.404;2024-02-26T08:04:54;100520.19;;;5.53;100.00
71974;BME280;59840;52.122;5.404;2024-02-26T08:07:21;100522.81;;;5.53;100.00
71974;BME280;59840;52.122;5.404;2024-02-26T08:09:47;100533.03;;;5.55;100.00
71974;BME280;59840;52.122;5.404;2024-02-26T08:12:14;100533.63;;;5.57;100.00
71974;BME280;59840;52.122;5.404;2024-02-26T08:14:41;100529.97;;;5.58;100.00
71974;BME280;59840;52.122;5.404;2024-02-26T08:17:07;100543.88;;;5.58;100.00
71974;BME280;59840;52.122;5.404;2024-02-26T08:19:34;100547.28;;;5.59;100.00
71974;BME280;59840;52.122;5.404;2024-02-26T08:22:02;100549.69;;;5.60;100.00
71974;BME280;59840;52.122;5.404;2024-02-26T08:24:30;100547.06;;;5.60;100.00
71974;BME280;59840;52.122;5.404;2024-02-26T08:26:57;100553.53;;;5.58;100.00
71974;BME280;59840;52.122;5.404;2024-02-26T08:29:24;100556.94;;;5.58;100.00
71974;BME280;59840;52.122;5.404;2024-02-26T08:31:50;100552.75;;;5.57;100.00
71974;BME280;59840;52.122;5.404;2024-02-26T08:34:17;100552.53;;;5.59;100.00
71974;BME280;59840;52.122;5.404;2024-02-26T08:36:44;100581.31;;;5.59;100.00
71974;BME280;59840;52.122;5.404;2024-02-26T08:39:11;100566.41;;;5.59;100.00
71974;BME280;59840;52.122;5.404;2024-02-26T08:41:40;100559.94;;;5.62;100.00
71974;BME280;59840;52.122;5.404;2024-02-26T08:44:06;100563.56;;;5.61;100.00
71974;BME280;59840;52.122;5.404;2024-02-26T08:46:33;100570.03;;;5.58;100.00
71974;BME280;59840;52.122;5.404;2024-02-26T08:49:00;100573.47;;;5.59;100.00
71974;BME280;59840;52.122;5.404;2024-02-26T08:51:26;100574.25;;;5.59;100.00
71974;BME280;59840;52.122;5.404;2024-02-26T08:53:53;100575.28;;;5.58;100.00
71974;BME280;59840;52.122;5.404;2024-02-26T08:56:20;100582.31;;;5.58;100.00
71974;BME280;59840;52.122;5.404;2024-02-26T08:58:48;100581.75;;;5.56;100.00
71974;BME280;59840;52.122;5.404;2024-02-26T09:01:15;100589.59;;;5.56;100.00
71974;BME280;59840;52.122;5.404;2024-02-26T09:03:42;100592.44;;;5.54;100.00
71974;BME280;59840;52.122;5.404;2024-02-26T09:06:09;100594.28;;;5.54;100.00
71974;BME280;59840;52.122;5.404;2024-02-26T09:08:38;100595.50;;;5.51;100.00
71974;BME280;59840;52.122;5.404;2024-02-26T09:11:04;100604.16;;;5.52;100.00
71974;BME280;59840;52.122;5.404;2024-02-26T09:13:31;100598.75;;;5.47;100.00
71974;BME280;59840;52.122;5.404;2024-02-26T09:15:58;100608.66;;;5.45;100.00
71974;BME280;59840;52.122;5.404;2024-02-26T09:18:25;100604.44;;;5.44;100.00
71974;BME280;59840;52.122;5.404;2024-02-26T09:20:52;100598.59;;;5.42;100.00
71974;BME280;59840;52.122;5.404;2024-02-26T09:23:19;100609.06;;;5.42;100.00
71974;BME280;59840;52.122;5.404;2024-02-26T09:25:45;100626.38;;;5.43;100.00
71974;BME280;59840;52.122;5.404;2024-02-26T09:28:12;100621.56;;;5.39;100.00
71974;BME280;59840;52.122;5.404;2024-02-26T09:30:38;100616.56;;;5.38;100.00
71974;BME280;59840;52.122;5.404;2024-02-26T09:33:05;100614.53;;;5.40;100.00
71974;BME280;59840;52.122;5.404;2024-02-26T09:35:32;100623.59;;;5.37;100.00
71974;BME280;59840;52.122;5.404;2024-02-26T09:37:58;100632.25;;;5.38;100.00
71974;BME280;59840;52.122;5.404;2024-02-26T09:40:25;100627.81;;;5.38;100.00
71974;BME280;59840;52.122;5.404;2024-02-26T09:42:53;100639.88;;;5.39;100.00
71974;BME280;59840;52.122;5.404;2024-02-26T09:45:25;100645.13;;;5.39;100.00
71974;BME280;59840;52.122;5.404;2024-02-26T09:47:55;100644.91;;;5.41;100.00
71974;BME280;59840;52.122;5.404;2024-02-26T09:50:23;100644.91;;;5.41;100.00
71974;BME280;59840;52.122;5.404;2024-02-26T09:52:51;100652.97;;;5.39;100.00
71974;BME280;59840;52.122;5.404;2024-02-26T09:55:19;100651.38;;;5.38;100.00
71974;BME280;59840;52.122;5.404;2024-02-26T09:57:46;100649.97;;;5.36;100.00
71974;BME280;59840;52.122;5.404;2024-02-26T10:00:17;100654.41;;;5.35;100.00
71974;BME280;59840;52.122;5.404;2024-02-26T10:02:48;100674.75;;;5.33;100.00
71974;BME280;59840;52.122;5.404;2024-02-26T10:05:17;100666.91;;;5.33;100.00
71974;BME280;59840;52.122;5.404;2024-02-26T10:07:46;100671.91;;;5.35;100.00
71974;BME280;59840;52.122;5.404;2024-02-26T10:10:17;100679.56;;;5.36;100.00
71974;BME280;59840;52.122;5.404;2024-02-26T10:12:44;100667.69;;;5.34;100.00
71974;BME280;59840;52.122;5.404;2024-02-26T10:15:10;100671.31;;;5.33;100.00
71974;BME280;59840;52.122;5.404;2024-02-26T10:17:38;100677.16;;;5.35;100.00
71974;BME280;59840;52.122;5.404;2024-02-26T10:20:15;100688.41;;;5.35;100.00
71974;BME280;59840;52.122;5.404;2024-02-26T10:22:44;100677.56;;;5.32;100.00
71974;BME280;59840;52.122;5.404;2024-02-26T10:25:11;100700.09;;;5.33;100.00
71974;BME280;59840;52.122;5.404;2024-02-26T10:27:37;100698.72;;;5.30;100.00
71974;BME280;59840;52.122;5.404;2024-02-26T10:30:15;100696.09;;;5.30;100.00
71974;BME280;59840;52.122;5.404;2024-02-26T10:32:45;100709.97;;;5.31;100.00
71974;BME280;59840;52.122;5.404;2024-02-26T10:35:14;100705.97;;;5.28;100.00
71974;BME280;59840;52.122;5.404;2024-02-26T10:37:42;100703.16;;;5.30;100.00
71974;BME280;59840;52.122;5.404;2024-02-26T10:40:12;100710.34;;;5.34;100.00
71974;BME280;59840;52.122;5.404;2024-02-26T10:42:41;100726.47;;;5.31;100.00
71974;BME280;59840;52.122;5.404;2024-02-26T10:45:09;100725.69;;;5.31;100.00
71974;BME280;59840;52.122;5.404;2024-02-26T10:47:36;100731.91;;;5.30;100.00
71974;BME280;59840;52.122;5.404;2024-02-26T10:50:04;100738.53;;;5.32;100.00
71974;BME280;59840;52.122;5.404;2024-02-26T10:52:34;100733.91;;;5.34;100.00
71974;BME280;59840;52.122;5.404;2024-02-26T10:55:05;100743.34;;;5.35;100.00
71974;BME280;59840;52.122;5.404;2024-02-26T10:57:40;100738.94;;;5.36;100.00
71974;BME280;59840;52.122;5.404;2024-02-26T11:00:08;100764.88;;;5.37;100.00
71974;BME280;59840;52.122;5.404;2024-02-26T11:02:40;100754.00;;;5.41;100.00
71974;BME280;59840;52.122;5.404;2024-02-26T11:05:07;100757.78;;;5.45;100.00
71974;BME280;59840;52.122;5.404;2024-02-26T11:07:34;100762.00;;;5.46;100.00
71974;BME280;59840;52.122;5.404;2024-02-26T11:10:06;100761.81;;;5.47;100.00
71974;BME280;59840;52.122;5.404;2024-02-26T11:12:33;100778.69;;;5.51;100.00
71974;BME280;59840;52.122;5.404;2024-02-26T11:15:04;100764.22;;;5.49;100.00
71974;BME280;59840;52.122;5.404;2024-02-26T11:17:31;100771.84;;;5.50;100.00
71974;BME280;59840;52.122;5.404;2024-02-26T11:19:59;100776.88;;;5.52;100.00
71974;BME280;59840;52.122;5.404;2024-02-26T11:22:26;100782.69;;;5.54;100.00
71974;BME280;59840;52.122;5.404;2024-02-26T11:24:54;100786.31;;;5.53;100.00
71974;BME280;59840;52.122;5.404;2024-02-26T11:27:28;100782.69;;;5.54;100.00
71974;BME280;59840;52.122;5.404;2024-02-26T11:29:58;100785.31;;;5.54;100.00
71974;BME280;59840;52.122;5.404;2024-02-26T11:32:27;100788.94;;;5.53;100.00
71974;BME280;59840;52.122;5.404;2024-02-26T11:34:57;100790.75;;;5.52;100.00
71974;BME280;59840;52.122;5.404;2024-02-26T11:37:25;100802.03;;;5.53;100.00
71974;BME280;59840;52.122;5.404;2024-02-26T11:39:52;100802.44;;;5.50;100.00
71974;BME280;59840;52.122;5.404;2024-02-26T11:42:23;100793.00;;;5.49;100.00
71974;BME280;59840;52.122;5.404;2024-02-26T11:44:51;100794.59;;;5.50;100.00
71974;BME280;59840;52.122;5.404;2024-02-26T11:47:20;100798.81;;;5.51;100.00
71974;BME280;59840;52.122;5.404;2024-02-26T11:49:48;100804.84;;;5.51;100.00
71974;BME280;59840;52.122;5.404;2024-02-26T11:52:15;100803.84;;;5.52;100.00
71974;BME280;59840;52.122;5.404;2024-02-26T11:54:53;100812.50;;;5.53;100.00
71974;BME280;59840;52.122;5.404;2024-02-26T11:57:39;100817.72;;;5.53;100.00
71974;BME280;59840;52.122;5.404;2024-02-26T12:05:11;100825.09;;;5.62;100.00
71974;BME280;59840;52.122;5.404;2024-02-26T12:07:44;100826.50;;;5.65;100.00
71974;BME280;59840;52.122;5.404;2024-02-26T12:10:17;100829.53;;;5.62;100.00
71974;BME280;59840;52.122;5.404;2024-02-26T12:12:47;100827.34;;;5.59;100.00
71974;BME280;59840;52.122;5.404;2024-02-26T12:15:14;100835.78;;;5.61;100.00
71974;BME280;59840;52.122;5.404;2024-02-26T12:17:42;100836.38;;;5.63;100.00
71974;BME280;59840;52.122;5.404;2024-02-26T12:20:16;100834.13;;;5.66;100.00
71974;BME280;59840;52.122;5.404;2024-02-26T12:22:45;100835.53;;;5.69;100.00
71974;BME280;59840;52.122;5.404;2024-02-26T12:25:14;100854.22;;;5.72;100.00
71974;BME280;59840;52.122;5.404;2024-02-26T12:27:40;100849.41;;;5.69;100.00
71974;BME280;59840;52.122;5.404;2024-02-26T12:30:08;100845.56;;;5.72;100.00
71974;BME280;59840;52.122;5.404;2024-02-26T12:32:35;100868.34;;;5.71;100.00
71974;BME280;59840;52.122;5.404;2024-02-26T12:35:02;100858.66;;;5.72;100.00
71974;BME280;59840;52.122;5.404;2024-02-26T12:37:29;100862.31;;;5.71;100.00
71974;BME280;59840;52.122;5.404;2024-02-26T12:39:56;100857.88;;;5.71;100.00
71974;BME280;59840;52.122;5.404;2024-02-26T12:42:22;100850.22;;;5.70;100.00
71974;BME280;59840;52.122;5.404;2024-02-26T12:44:50;100865.31;;;5.75;100.00
71974;BME280;59840;52.122;5.404;2024-02-26T12:47:16;100863.91;;;5.72;100.00
71974;BME280;59840;52.122;5.404;2024-02-26T12:49:47;100869.13;;;5.72;100.00
71974;BME280;59840;52.122;5.404;2024-02-26T12:52:14;100874.16;;;5.73;100.00
71974;BME280;59840;52.122;5.404;2024-02-26T12:54:42;100877.16;;;5.77;100.00
71974;BME280;59840;52.122;5.404;2024-02-26T12:57:10;100871.94;;;5.77;100.00